sensor_id;sensor_type;location;lat;lon;timestamp;pressure;altitude;pressure_sealevel;temperature;humidity
65157;BME280;52745;49.794;18.258;2022-08-14T00:01:06;98544.63;;;17.99;100.00
65157;BME280;52745;49.794;18.258;2022-08-14T00:03:33;98551.63;;;18.01;100.00
65157;BME280;52745;49.794;18.258;2022-08-14T00:06:00;98552.53;;;17.96;100.00
65157;BME280;52745;49.794;18.258;2022-08-14T00:08:28;98553.59;;;17.95;100.00
65157;BME280;52745;49.794;18.258;2022-08-14T00:10:55;98550.63;;;17.96;100.00
65157;BME280;52745;49.794;18.258;2022-08-14T00:13:25;98539.31;;;17.94;100.00
65157;BME280;52745;49.794;18.258;2022-08-14T00:15:56;98537.47;;;17.90;100.00
65157;BME280;52745;49.794;18.258;2022-08-14T00:18:25;98535.06;;;17.88;100.00
65157;BME280;52745;49.794;18.258;2022-08-14T00:20:53;98526.16;;;17.88;100.00
65157;BME280;52745;49.794;18.258;2022-08-14T00:23:20;98529.66;;;17.88;100.00
65157;BME280;52745;49.794;18.258;2022-08-14T00:25:50;98525.06;;;17.89;100.00
65157;BME280;52745;49.794;18.258;2022-08-14T00:28:17;98522.69;;;17.87;100.00
65157;BME280;52745;49.794;18.258;2022-08-14T00:30:47;98525.88;;;17.89;100.00
65157;BME280;52745;49.794;18.258;2022-08-14T00:33:13;98520.53;;;17.84;100.00
65157;BME280;52745;49.794;18.258;2022-08-14T00:35:40;98514.06;;;17.85;100.00
65157;BME280;52745;49.794;18.258;2022-08-14T00:38:06;98513.97;;;17.90;100.00
65157;BME280;52745;49.794;18.258;2022-08-14T00:40:33;98513.47;;;17.88;100.00
65157;BME280;52745;49.794;18.258;2022-08-14T00:43:00;98516.97;;;17.89;100.00
65157;BME280;52745;49.794;18.258;2022-08-14T00:45:27;98516.09;;;17.93;100.00
65157;BME280;52745;49.794;18.258;2022-08-14T00:47:54;98519.59;;;17.94;100.00
65157;BME280;52745;49.794;18.258;2022-08-14T00:50:21;98517.09;;;17.97;100.00
65157;BME280;52745;49.794;18.258;2022-08-14T00:52:50;98512.72;;;18.02;100.00
65157;BME280;52745;49.794;18.258;2022-08-14T00:55:18;98516.31;;;17.97;100.00
65157;BME280;52745;49.794;18.258;2022-08-14T00:57:46;98513.41;;;17.93;100.00
65157;BME280;52745;49.794;18.258;2022-08-14T01:00:37;98514.78;;;17.91;100.00
65157;BME280;52745;49.794;18.258;2022-08-14T01:03:06;98511.88;;;17.87;100.00
65157;BME280;52745;49.794;18.258;2022-08-14T01:05:33;98506.75;;;17.86;100.00
65157;BME280;52745;49.794;18.258;2022-08-14T01:08:00;98509.75;;;17.84;100.00
65157;BME280;52745;49.794;18.258;2022-08-14T01:10:28;98507.03;;;17.84;100.00
65157;BME280;52745;49.794;18.258;2022-08-14T01:13:15;98509.22;;;17.82;100.00
65157;BME280;52745;49.794;18.258;2022-08-14T01:15:43;98509.22;;;17.82;100.00
65157;BME280;52745;49.794;18.258;2022-08-14T01:18:11;98510.59;;;17.79;100.00
65157;BME280;52745;49.794;18.258;2022-08-14T01:20:57;98508.72;;;17.80;100.00
65157;BME280;52745;49.794;18.258;2022-08-14T01:23:39;98506.03;;;17.80;100.00
65157;BME280;52745;49.794;18.258;2022-08-14T01:26:07;98514.63;;;17.82;100.00
65157;BME280;52745;49.794;18.258;2022-08-14T01:28:35;98509.47;;;17.86;100.00
65157;BME280;52745;49.794;18.258;2022-08-14T01:31:10;98512.75;;;17.83;100.00
65157;BME280;52745;49.794;18.258;2022-08-14T01:33:38;98506.03;;;17.80;100.00
65157;BME280;52745;49.794;18.258;2022-08-14T01:36:10;98504.69;;;17.77;100.00
65157;BME280;52745;49.794;18.258;2022-08-14T01:38:38;98502.56;;;17.74;100.00
65157;BME280;52745;49.794;18.258;2022-08-14T01:41:11;98501.78;;;17.74;100.00
65157;BME280;52745;49.794;18.258;2022-08-14T01:46:09;98505.56;;;17.73;100.00
65157;BME280;52745;49.794;18.258;2022-08-14T01:48:38;98510.09;;;17.77;100.00
65157;BME280;52745;49.794;18.258;2022-08-14T01:51:05;98510.06;;;17.83;100.00
65157;BME280;52745;49.794;18.258;2022-08-14T01:53:32;98512.22;;;17.81;100.00
65157;BME280;52745;49.794;18.258;2022-08-14T01:56:02;98506.59;;;17.77;100.00
65157;BME280;52745;49.794;18.258;2022-08-14T01:58:30;98510.97;;;17.73;100.00
65157;BME280;52745;49.794;18.258;2022-08-14T02:00:57;98502.66;;;17.69;100.00
65157;BME280;52745;49.794;18.258;2022-08-14T02:03:28;98497.47;;;17.73;100.00
65157;BME280;52745;49.794;18.258;2022-08-14T02:05:56;98503.97;;;17.72;100.00
65157;BME280;52745;49.794;18.258;2022-08-14T02:08:25;98488.28;;;17.74;100.00
65157;BME280;52745;49.794;18.258;2022-08-14T02:10:52;98489.69;;;17.71;100.00
65157;BME280;52745;49.794;18.258;2022-08-14T02:13:39;98482.75;;;17.65;100.00
65157;BME280;52745;49.794;18.258;2022-08-14T02:16:06;98480.94;;;17.61;100.00
65157;BME280;52745;49.794;18.258;2022-08-14T02:18:32;98486.88;;;17.57;100.00
65157;BME280;52745;49.794;18.258;2022-08-14T02:20:59;98480.41;;;17.58;100.00
65157;BME280;52745;49.794;18.258;2022-08-14T02:23:25;98483.63;;;17.61;100.00
65157;BME280;52745;49.794;18.258;2022-08-14T02:25:52;98483.63;;;17.61;100.00
65157;BME280;52745;49.794;18.258;2022-08-14T02:28:19;98479.81;;;17.62;100.00
65157;BME280;52745;49.794;18.258;2022-08-14T02:30:45;98482.50;;;17.62;100.00
65157;BME280;52745;49.794;18.258;2022-08-14T02:33:12;98484.94;;;17.63;100.00
65157;BME280;52745;49.794;18.258;2022-08-14T02:35:42;98471.94;;;17.65;100.00
65157;BME280;52745;49.794;18.258;2022-08-14T02:38:09;98479.81;;;17.62;100.00
65157;BME280;52745;49.794;18.258;2022-08-14T02:40:36;98474.94;;;17.64;100.00
65157;BME280;52745;49.794;18.258;2022-08-14T02:43:04;98475.94;;;17.68;100.00
65157;BME280;52745;49.794;18.258;2022-08-14T02:45:32;98481.88;;;17.70;100.00
65157;BME280;52745;49.794;18.258;2022-08-14T02:48:03;98481.22;;;17.78;100.00
65157;BME280;52745;49.794;18.258;2022-08-14T02:50:32;98483.91;;;17.78;100.00
65157;BME280;52745;49.794;18.258;2022-08-14T02:53:00;98489.00;;;17.79;100.00
65157;BME280;52745;49.794;18.258;2022-08-14T02:55:27;98485.94;;;17.86;100.00
65157;BME280;52745;49.794;18.258;2022-08-14T02:57:56;98485.38;;;17.89;100.00
65157;BME280;52745;49.794;18.258;2022-08-14T03:00:22;98485.88;;;17.91;100.00
65157;BME280;52745;49.794;18.258;2022-08-14T03:02:49;98492.09;;;17.92;100.00
65157;BME280;52745;49.794;18.258;2022-08-14T03:05:17;98482.59;;;17.94;100.00
65157;BME280;52745;49.794;18.258;2022-08-14T03:07:44;98488.28;;;17.93;100.00
65157;BME280;52745;49.794;18.258;2022-08-14T03:10:10;98493.31;;;17.99;100.00
65157;BME280;52745;49.794;18.258;2022-08-14T03:12:37;98492.28;;;17.95;100.00
65157;BME280;52745;49.794;18.258;2022-08-14T03:15:04;98488.09;;;17.89;100.00
65157;BME280;52745;49.794;18.258;2022-08-14T03:17:40;98487.34;;;17.84;100.00
65157;BME280;52745;49.794;18.258;2022-08-14T03:20:08;98483.41;;;17.76;100.00
65157;BME280;52745;49.794;18.258;2022-08-14T03:22:36;98479.88;;;17.75;100.00
65157;BME280;52745;49.794;18.258;2022-08-14T03:25:03;98478.56;;;17.73;100.00
65157;BME280;52745;49.794;18.258;2022-08-14T03:27:30;98480.19;;;17.74;100.00
65157;BME280;52745;49.794;18.258;2022-08-14T03:29:57;98477.25;;;17.70;100.00
65157;BME280;52745;49.794;18.258;2022-08-14T03:32:23;98477.16;;;17.75;100.00
65157;BME280;52745;49.794;18.258;2022-08-14T03:34:50;98480.38;;;17.77;100.00
65157;BME280;52745;49.794;18.258;2022-08-14T03:37:16;98476.97;;;17.72;100.00
65157;BME280;52745;49.794;18.258;2022-08-14T03:39:43;98476.75;;;17.68;100.00
65157;BME280;52745;49.794;18.258;2022-08-14T03:42:09;98480.75;;;17.71;100.00
65157;BME280;52745;49.794;18.258;2022-08-14T03:44:38;98475.66;;;17.69;100.00
65157;BME280;52745;49.794;18.258;2022-08-14T03:47:07;98483.53;;;17.66;100.00
65157;BME280;52745;49.794;18.258;2022-08-14T03:49:34;98473.53;;;17.66;100.00
65157;BME280;52745;49.794;18.258;2022-08-14T03:52:01;98475.72;;;17.64;100.00
65157;BME280;52745;49.794;18.258;2022-08-14T03:54:30;98477.06;;;17.67;100.00
65157;BME280;52745;49.794;18.258;2022-08-14T03:57:01;98472.16;;;17.69;100.00
65157;BME280;52745;49.794;18.258;2022-08-14T03:59:27;98474.00;;;17.73;100.00
65157;BME280;52745;49.794;18.258;2022-08-14T04:01:54;98479.38;;;17.73;100.00
65157;BME280;52745;49.794;18.258;2022-08-14T04:04:20;98471.56;;;17.72;100.00
65157;BME280;52745;49.794;18.258;2022-08-14T04:06:47;98477.50;;;17.74;100.00
65157;BME280;52745;49.794;18.258;2022-08-14T04:09:14;98476.25;;;17.85;100.00
65157;BME280;52745;49.794;18.258;2022-08-14T04:11:40;98480.88;;;17.85;100.00
65157;BME280;52745;49.794;18.258;2022-08-14T04:14:06;98483.25;;;17.86;100.00
65157;BME280;52745;49.794;18.258;2022-08-14T04:16:33;98480.03;;;17.84;100.00
65157;BME280;52745;49.794;18.258;2022-08-14T04:19:00;98474.41;;;17.81;100.00
65157;BME280;52745;49.794;18.258;2022-08-14T04:21:29;98480.69;;;17.76;100.00
65157;BME280;52745;49.794;18.258;2022-08-14T04:23:59;98477.16;;;17.75;100.00
65157;BME280;52745;49.794;18.258;2022-08-14T04:26:27;98470.78;;;17.71;100.00
65157;BME280;52745;49.794;18.258;2022-08-14T04:28:55;98471.28;;;17.73;100.00
65157;BME280;52745;49.794;18.258;2022-08-14T04:31:24;98471.78;;;17.75;100.00
65157;BME280;52745;49.794;18.258;2022-08-14T04:33:51;98475.81;;;17.78;100.00
65157;BME280;52745;49.794;18.258;2022-08-14T04:36:18;98472.00;;;17.79;100.00
65157;BME280;52745;49.794;18.258;2022-08-14T04:38:45;98468.72;;;17.82;100.00
65157;BME280;52745;49.794;18.258;2022-08-14T04:41:30;98463.09;;;17.78;100.00
65157;BME280;52745;49.794;18.258;2022-08-14T04:44:17;98455.50;;;17.81;100.00
65157;BME280;52745;49.794;18.258;2022-08-14T04:46:44;98460.56;;;17.87;100.00
65157;BME280;52745;49.794;18.258;2022-08-14T04:49:29;98462.38;;;17.92;100.00
65157;BME280;52745;49.794;18.258;2022-08-14T04:51:56;98460.47;;;17.92;100.00
65157;BME280;52745;49.794;18.258;2022-08-14T04:54:23;98455.59;;;17.94;100.00
65157;BME280;52745;49.794;18.258;2022-08-14T04:56:55;98457.69;;;17.97;100.00
65157;BME280;52745;49.794;18.258;2022-08-14T04:59:23;98456.78;;;18.02;100.00
65157;BME280;52745;49.794;18.258;2022-08-14T05:01:49;98463.91;;;17.98;100.00
65157;BME280;52745;49.794;18.258;2022-08-14T05:04:20;98448.13;;;18.05;100.00
65157;BME280;52745;49.794;18.258;2022-08-14T05:06:51;98452.34;;;18.11;100.00
65157;BME280;52745;49.794;18.258;2022-08-14T05:09:18;98455.16;;;18.20;100.00
65157;BME280;52745;49.794;18.258;2022-08-14T05:11:44;98453.53;;;18.19;100.00
65157;BME280;52745;49.794;18.258;2022-08-14T05:14:11;98453.13;;;18.12;100.00
65157;BME280;52745;49.794;18.258;2022-08-14T05:16:38;98451.50;;;18.11;100.00
65157;BME280;52745;49.794;18.258;2022-08-14T05:19:04;98461.34;;;18.20;100.00
65157;BME280;52745;49.794;18.258;2022-08-14T05:21:30;98455.56;;;18.27;100.00
65157;BME280;52745;49.794;18.258;2022-08-14T05:24:01;98454.78;;;18.27;100.00
65157;BME280;52745;49.794;18.258;2022-08-14T05:26:27;98453.66;;;18.28;100.00
65157;BME280;52745;49.794;18.258;2022-08-14T05:28:53;98447.38;;;18.32;100.00
65157;BME280;52745;49.794;18.258;2022-08-14T05:31:20;98448.53;;;18.26;100.00
65157;BME280;52745;49.794;18.258;2022-08-14T05:33:47;98445.34;;;18.24;100.00
65157;BME280;52745;49.794;18.258;2022-08-14T05:36:14;98447.25;;;18.24;100.00
65157;BME280;52745;49.794;18.258;2022-08-14T05:38:44;98438.06;;;18.25;100.00
65157;BME280;52745;49.794;18.258;2022-08-14T05:41:17;98435.75;;;18.18;100.00
65157;BME280;52745;49.794;18.258;2022-08-14T05:43:45;98438.44;;;18.18;100.00
65157;BME280;52745;49.794;18.258;2022-08-14T05:46:17;98427.19;;;18.11;100.00
65157;BME280;52745;49.794;18.258;2022-08-14T05:48:48;98433.31;;;18.03;100.00
65157;BME280;52745;49.794;18.258;2022-08-14T05:51:16;98434.09;;;18.03;100.00
65157;BME280;52745;49.794;18.258;2022-08-14T05:53:42;98433.31;;;18.03;100.00
65157;BME280;52745;49.794;18.258;2022-08-14T05:56:09;98439.72;;;18.07;100.00
65157;BME280;52745;49.794;18.258;2022-08-14T05:58:36;98438.09;;;18.06;100.00
65157;BME280;52745;49.794;18.258;2022-08-14T06:01:02;98438.91;;;18.06;100.00
65157;BME280;52745;49.794;18.258;2022-08-14T06:03:29;98433.72;;;18.10;100.00
65157;BME280;52745;49.794;18.258;2022-08-14T06:05:56;98430.91;;;18.15;100.00
65157;BME280;52745;49.794;18.258;2022-08-14T06:08:25;98429.31;;;18.14;100.00
65157;BME280;52745;49.794;18.258;2022-08-14T06:10:57;98435.03;;;18.12;100.00
65157;BME280;52745;49.794;18.258;2022-08-14T06:13:29;98436.75;;;18.22;100.00
65157;BME280;52745;49.794;18.258;2022-08-14T06:15:56;98432.16;;;18.23;100.00
65157;BME280;52745;49.794;18.258;2022-08-14T06:18:22;98433.94;;;18.27;100.00
65157;BME280;52745;49.794;18.258;2022-08-14T06:20:49;98429.25;;;18.33;100.00
65157;BME280;52745;49.794;18.258;2022-08-14T06:23:15;98432.25;;;18.31;100.00
65157;BME280;52745;49.794;18.258;2022-08-14T06:25:42;98429.56;;;18.31;100.00
65157;BME280;52745;49.794;18.258;2022-08-14T06:28:21;98429.56;;;18.31;100.00
65157;BME280;52745;49.794;18.258;2022-08-14T06:30:48;98429.63;;;18.26;100.00
65157;BME280;52745;49.794;18.258;2022-08-14T06:33:16;98435.53;;;18.28;100.00
65157;BME280;52745;49.794;18.258;2022-08-14T06:35:44;98429.97;;;18.38;100.00
65157;BME280;52745;49.794;18.258;2022-08-14T06:38:15;98426.75;;;18.50;100.00
65157;BME280;52745;49.794;18.258;2022-08-14T06:40:43;98429.97;;;18.52;100.00
65157;BME280;52745;49.794;18.258;2022-08-14T06:43:11;98432.38;;;18.54;100.00
65157;BME280;52745;49.794;18.258;2022-08-14T06:45:39;98434.06;;;18.50;100.00
65157;BME280;52745;49.794;18.258;2022-08-14T06:48:14;98429.06;;;18.43;100.00
65157;BME280;52745;49.794;18.258;2022-08-14T06:50:42;98428.56;;;18.41;100.00
65157;BME280;52745;49.794;18.258;2022-08-14T06:53:10;98433.16;;;18.40;100.00
65157;BME280;52745;49.794;18.258;2022-08-14T06:55:37;98428.16;;;18.48;100.00
65157;BME280;52745;49.794;18.258;2022-08-14T06:58:03;98429.16;;;18.52;100.00
65157;BME280;52745;49.794;18.258;2022-08-14T07:00:30;98428.44;;;18.46;100.00
65157;BME280;52745;49.794;18.258;2022-08-14T07:02:57;98423.16;;;18.55;100.00
65157;BME280;52745;49.794;18.258;2022-08-14T07:05:43;98417.66;;;18.60;100.00
65157;BME280;52745;49.794;18.258;2022-08-14T07:08:18;98422.84;;;18.70;100.00
65157;BME280;52745;49.794;18.258;2022-08-14T07:10:49;98424.78;;;18.84;100.00
65157;BME280;52745;49.794;18.258;2022-08-14T07:13:17;98420.59;;;18.77;100.00
65157;BME280;52745;49.794;18.258;2022-08-14T07:15:45;98419.34;;;18.70;100.00
65157;BME280;52745;49.794;18.258;2022-08-14T07:18:23;98426.66;;;18.69;100.00
65157;BME280;52745;49.794;18.258;2022-08-14T07:20:51;98423.56;;;18.62;100.00
65157;BME280;52745;49.794;18.258;2022-08-14T07:23:20;98426.28;;;18.62;100.00
65157;BME280;52745;49.794;18.258;2022-08-14T07:25:51;98424.88;;;18.65;100.00
65157;BME280;52745;49.794;18.258;2022-08-14T07:28:20;98429.88;;;18.71;100.00
65157;BME280;52745;49.794;18.258;2022-08-14T07:30:50;98427.19;;;18.71;100.00
65157;BME280;52745;49.794;18.258;2022-08-14T07:33:21;98431.97;;;18.74;99.04
65157;BME280;52745;49.794;18.258;2022-08-14T07:35:47;98426.56;;;18.88;98.71
65157;BME280;52745;49.794;18.258;2022-08-14T07:38:19;98424.97;;;19.01;98.81
65157;BME280;52745;49.794;18.258;2022-08-14T07:40:46;98430.53;;;19.18;98.52
65157;BME280;52745;49.794;18.258;2022-08-14T07:43:13;98423.50;;;19.31;96.55
65157;BME280;52745;49.794;18.258;2022-08-14T07:45:40;98425.94;;;19.55;95.38
65157;BME280;52745;49.794;18.258;2022-08-14T07:48:07;98419.97;;;19.90;94.25
65157;BME280;52745;49.794;18.258;2022-08-14T07:50:33;98416.44;;;20.12;94.27
65157;BME280;52745;49.794;18.258;2022-08-14T07:53:01;98419.50;;;20.19;93.41
65157;BME280;52745;49.794;18.258;2022-08-14T07:55:28;98418.00;;;20.35;92.78
65157;BME280;52745;49.794;18.258;2022-08-14T07:57:54;98419.88;;;20.26;91.26
65157;BME280;52745;49.794;18.258;2022-08-14T08:00:23;98413.81;;;20.29;90.88
65157;BME280;52745;49.794;18.258;2022-08-14T08:02:52;98406.97;;;20.32;91.39
65157;BME280;52745;49.794;18.258;2022-08-14T08:05:23;98419.69;;;20.22;90.84
65157;BME280;52745;49.794;18.258;2022-08-14T08:07:50;98412.28;;;20.14;91.04
65157;BME280;52745;49.794;18.258;2022-08-14T08:10:19;98417.91;;;20.18;90.11
65157;BME280;52745;49.794;18.258;2022-08-14T08:13:14;98409.03;;;20.03;91.47
65157;BME280;52745;49.794;18.258;2022-08-14T08:18:12;98419.75;;;19.77;92.29
65157;BME280;52745;49.794;18.258;2022-08-14T08:20:41;98418.81;;;19.82;92.57
65157;BME280;52745;49.794;18.258;2022-08-14T08:23:08;98415.25;;;19.73;92.89
65157;BME280;52745;49.794;18.258;2022-08-14T08:25:40;98410.44;;;19.70;92.48
65157;BME280;52745;49.794;18.258;2022-08-14T08:28:13;98414.84;;;19.65;93.36
65157;BME280;52745;49.794;18.258;2022-08-14T08:30:53;98411.03;;;19.67;94.45
65157;BME280;52745;49.794;18.258;2022-08-14T08:33:21;98413.91;;;19.84;94.37
65157;BME280;52745;49.794;18.258;2022-08-14T08:35:48;98405.19;;;19.96;93.97
65157;BME280;52745;49.794;18.258;2022-08-14T08:38:22;98411.16;;;20.07;93.12
65157;BME280;52745;49.794;18.258;2022-08-14T08:40:50;98412.38;;;20.32;91.32
65157;BME280;52745;49.794;18.258;2022-08-14T08:43:23;98410.97;;;20.74;90.28
65157;BME280;52745;49.794;18.258;2022-08-14T08:46:04;98410.44;;;21.12;88.45
65157;BME280;52745;49.794;18.258;2022-08-14T08:48:44;98406.44;;;21.36;85.72
65157;BME280;52745;49.794;18.258;2022-08-14T08:51:32;98412.19;;;21.78;83.57
65157;BME280;52745;49.794;18.258;2022-08-14T08:54:09;98411.63;;;22.10;81.59
65157;BME280;52745;49.794;18.258;2022-08-14T08:56:41;98412.03;;;22.47;78.64
65157;BME280;52745;49.794;18.258;2022-08-14T08:59:27;98414.34;;;22.28;78.50
65157;BME280;52745;49.794;18.258;2022-08-14T09:01:56;98415.00;;;22.07;79.32
65157;BME280;52745;49.794;18.258;2022-08-14T09:04:28;98411.22;;;21.74;81.42
65157;BME280;52745;49.794;18.258;2022-08-14T09:06:56;98409.78;;;21.33;83.40
65157;BME280;52745;49.794;18.258;2022-08-14T09:09:25;98411.19;;;21.04;85.83
65157;BME280;52745;49.794;18.258;2022-08-14T09:11:54;98404.97;;;21.03;86.49
65157;BME280;52745;49.794;18.258;2022-08-14T09:14:22;98403.69;;;21.01;87.11
65157;BME280;52745;49.794;18.258;2022-08-14T09:16:51;98398.59;;;21.08;85.13
65157;BME280;52745;49.794;18.258;2022-08-14T09:19:18;98401.13;;;21.04;85.12
65157;BME280;52745;49.794;18.258;2022-08-14T09:21:44;98400.31;;;20.86;86.01
65157;BME280;52745;49.794;18.258;2022-08-14T09:24:13;98395.03;;;20.81;87.45
65157;BME280;52745;49.794;18.258;2022-08-14T09:26:42;98392.66;;;20.88;87.91
65157;BME280;52745;49.794;18.258;2022-08-14T09:29:10;98390.09;;;20.83;87.70
65157;BME280;52745;49.794;18.258;2022-08-14T09:31:39;98389.41;;;20.69;86.79
65157;BME280;52745;49.794;18.258;2022-08-14T09:34:28;98393.91;;;20.82;87.47
65157;BME280;52745;49.794;18.258;2022-08-14T09:40:02;98395.03;;;20.73;86.50
65157;BME280;52745;49.794;18.258;2022-08-14T09:45:45;98398.34;;;20.70;87.97
65157;BME280;52745;49.794;18.258;2022-08-14T09:48:17;98403.63;;;20.66;88.00
65157;BME280;52745;49.794;18.258;2022-08-14T09:50:52;98412.09;;;20.73;87.26
65157;BME280;52745;49.794;18.258;2022-08-14T09:53:44;98404.75;;;20.74;86.91
65157;BME280;52745;49.794;18.258;2022-08-14T09:56:13;98406.94;;;20.63;88.64
65157;BME280;52745;49.794;18.258;2022-08-14T09:58:41;98402.81;;;20.34;88.95
65157;BME280;52745;49.794;18.258;2022-08-14T10:01:14;98402.78;;;20.25;91.25
65157;BME280;52745;49.794;18.258;2022-08-14T10:03:52;98405.53;;;20.34;89.72
65157;BME280;52745;49.794;18.258;2022-08-14T10:06:23;98399.84;;;20.44;91.39
65157;BME280;52745;49.794;18.258;2022-08-14T10:09:02;98397.72;;;20.33;90.69
65157;BME280;52745;49.794;18.258;2022-08-14T10:11:34;98391.22;;;20.42;90.02
65157;BME280;52745;49.794;18.258;2022-08-14T10:14:18;98396.44;;;20.61;89.01
65157;BME280;52745;49.794;18.258;2022-08-14T10:16:47;98393.25;;;20.68;89.40
65157;BME280;52745;49.794;18.258;2022-08-14T10:19:17;98392.63;;;20.71;89.56
65157;BME280;52745;49.794;18.258;2022-08-14T10:24:29;98387.00;;;20.59;89.76
65157;BME280;52745;49.794;18.258;2022-08-14T10:26:58;98391.97;;;20.74;88.82
65157;BME280;52745;49.794;18.258;2022-08-14T10:29:36;98393.28;;;20.85;87.40
65157;BME280;52745;49.794;18.258;2022-08-14T10:32:06;98392.94;;;20.78;89.05
65157;BME280;52745;49.794;18.258;2022-08-14T10:34:39;98400.31;;;20.86;88.08
65157;BME280;52745;49.794;18.258;2022-08-14T10:37:11;98394.25;;;20.90;88.09
65157;BME280;52745;49.794;18.258;2022-08-14T10:39:39;98400.31;;;20.86;89.17
65157;BME280;52745;49.794;18.258;2022-08-14T10:42:09;98398.69;;;20.68;90.12
65157;BME280;52745;49.794;18.258;2022-08-14T10:47:06;98399.16;;;20.61;89.11
65157;BME280;52745;49.794;18.258;2022-08-14T10:49:37;98397.53;;;20.60;88.78
65157;BME280;52745;49.794;18.258;2022-08-14T10:52:09;98393.88;;;20.65;89.58
65157;BME280;52745;49.794;18.258;2022-08-14T10:54:40;98390.84;;;20.66;88.85
65157;BME280;52745;49.794;18.258;2022-08-14T11:00:13;98389.50;;;21.04;88.76
65157;BME280;52745;49.794;18.258;2022-08-14T11:02:41;98373.38;;;21.25;87.02
65157;BME280;52745;49.794;18.258;2022-08-14T11:05:15;98371.00;;;21.41;87.60
65157;BME280;52745;49.794;18.258;2022-08-14T11:10:24;98372.28;;;22.55;79.73
65157;BME280;52745;49.794;18.258;2022-08-14T11:12:54;98372.16;;;22.81;78.60
65157;BME280;52745;49.794;18.258;2022-08-14T11:15:24;98375.19;;;22.80;80.53
65157;BME280;52745;49.794;18.258;2022-08-14T11:17:53;98361.50;;;23.39;74.25
65157;BME280;52745;49.794;18.258;2022-08-14T11:20:25;98359.28;;;23.53;76.00
65157;BME280;52745;49.794;18.258;2022-08-14T11:22:54;98366.16;;;24.05;72.55
65157;BME280;52745;49.794;18.258;2022-08-14T11:25:23;98353.53;;;24.37;70.50
65157;BME280;52745;49.794;18.258;2022-08-14T11:27:52;98350.63;;;24.67;68.44
65157;BME280;52745;49.794;18.258;2022-08-14T11:30:27;98352.59;;;24.95;66.05
65157;BME280;52745;49.794;18.258;2022-08-14T11:32:55;98350.97;;;25.06;67.50
65157;BME280;52745;49.794;18.258;2022-08-14T11:35:24;98349.03;;;25.19;65.60
65157;BME280;52745;49.794;18.258;2022-08-14T11:38:00;98352.97;;;25.62;63.71
65157;BME280;52745;49.794;18.258;2022-08-14T11:40:31;98357.06;;;25.68;62.59
65157;BME280;52745;49.794;18.258;2022-08-14T11:43:02;98360.53;;;25.97;61.71
65157;BME280;52745;49.794;18.258;2022-08-14T11:45:33;98365.22;;;25.96;61.73
65157;BME280;52745;49.794;18.258;2022-08-14T11:48:12;98364.28;;;25.76;61.66
65157;BME280;52745;49.794;18.258;2022-08-14T11:50:38;98354.25;;;25.80;61.70
65157;BME280;52745;49.794;18.258;2022-08-14T11:53:06;98352.34;;;25.53;63.27
65157;BME280;52745;49.794;18.258;2022-08-14T11:55:43;98349.97;;;25.11;63.86
65157;BME280;52745;49.794;18.258;2022-08-14T11:58:11;98354.00;;;24.76;66.50
65157;BME280;52745;49.794;18.258;2022-08-14T12:00:54;98340.41;;;24.64;66.04
65157;BME280;52745;49.794;18.258;2022-08-14T12:03:38;98351.63;;;24.26;68.26
65157;BME280;52745;49.794;18.258;2022-08-14T12:06:10;98345.81;;;24.03;71.38
65157;BME280;52745;49.794;18.258;2022-08-14T12:08:38;98351.66;;;24.50;67.48
65157;BME280;52745;49.794;18.258;2022-08-14T12:11:07;98344.69;;;24.77;66.89
65157;BME280;52745;49.794;18.258;2022-08-14T12:13:35;98342.72;;;24.90;66.53
65157;BME280;52745;49.794;18.258;2022-08-14T12:16:03;98346.41;;;25.10;65.29
65157;BME280;52745;49.794;18.258;2022-08-14T12:18:34;98346.22;;;25.03;66.02
65157;BME280;52745;49.794;18.258;2022-08-14T12:23:37;98339.66;;;25.32;64.11
65157;BME280;52745;49.794;18.258;2022-08-14T12:26:05;98334.66;;;25.34;64.18
65157;BME280;52745;49.794;18.258;2022-08-14T12:28:33;98336.88;;;25.45;64.92
65157;BME280;52745;49.794;18.258;2022-08-14T12:31:11;98332.69;;;25.63;62.66
65157;BME280;52745;49.794;18.258;2022-08-14T12:33:38;98339.66;;;25.89;63.51
65157;BME280;52745;49.794;18.258;2022-08-14T12:36:08;98332.41;;;26.44;63.73
65157;BME280;52745;49.794;18.258;2022-08-14T12:38:40;98326.59;;;26.81;60.13
65157;BME280;52745;49.794;18.258;2022-08-14T12:41:10;98330.47;;;26.80;60.41
65157;BME280;52745;49.794;18.258;2022-08-14T12:43:48;98319.94;;;26.62;61.54
65157;BME280;52745;49.794;18.258;2022-08-14T12:46:23;98326.19;;;25.84;59.29
65157;BME280;52745;49.794;18.258;2022-08-14T12:48:50;98329.91;;;25.19;63.02
65157;BME280;52745;49.794;18.258;2022-08-14T12:51:18;98330.69;;;24.79;64.83
65157;BME280;52745;49.794;18.258;2022-08-14T12:53:46;98321.88;;;24.57;65.87
65157;BME280;52745;49.794;18.258;2022-08-14T12:56:20;98318.22;;;24.29;67.25
65157;BME280;52745;49.794;18.258;2022-08-14T12:58:49;98310.47;;;24.06;66.84
65157;BME280;52745;49.794;18.258;2022-08-14T13:01:27;98311.38;;;24.35;66.15
65157;BME280;52745;49.794;18.258;2022-08-14T13:04:10;98313.09;;;24.64;66.11
65157;BME280;52745;49.794;18.258;2022-08-14T13:06:39;98314.69;;;25.06;64.55
65157;BME280;52745;49.794;18.258;2022-08-14T13:09:07;98309.66;;;25.48;63.15
65157;BME280;52745;49.794;18.258;2022-08-14T13:12:02;98312.63;;;25.87;61.46
65157;BME280;52745;49.794;18.258;2022-08-14T13:14:31;98300.72;;;25.79;61.94
65157;BME280;52745;49.794;18.258;2022-08-14T13:17:00;98307.75;;;25.65;61.61
65157;BME280;52745;49.794;18.258;2022-08-14T13:19:31;98301.56;;;25.68;63.00
65157;BME280;52745;49.794;18.258;2022-08-14T13:21:58;98297.88;;;25.60;63.74
65157;BME280;52745;49.794;18.258;2022-08-14T13:24:25;98284.78;;;25.37;63.27